LFLL/LYS METAR and TAF weather

Enter ICAO airport designator
Station Type Date Time Source
LFLL METAR 2020/01/20 10:00 UTC NOAA

LFLL 201000Z VRB03KT CAVOK 02/M02 Q1038 NOSIG


Station Type Date Time Source
LFLL Decoded METAR 2020/01/20 10:00 UTC NOAA

Lyon / Satolas, France (LFLL) 45-44N 005-05E 240M
Jan 20, 2020 - 05:00 AM EST / 2020.01.20 1000 UTC
Wind: Variable at 3 MPH (3 KT):0
Visibility: greater than 7 mile(s):0
Temperature: 35 F (2 C)
Dew Point: 28 F (-2 C)
Relative Humidity: 74%
Pressure (altimeter): 30.65 in. Hg (1038 hPa)
ob: LFLL 201000Z VRB03KT CAVOK 02/M02 Q1038 NOSIG
cycle: 10

Station Type Date Time Source
LFLL TAF 2020/01/20 06:57 UTC NOAA

TAF LFLL 200500Z 2006/2112 34004KT CAVOK PROB40
TEMPO 2102/2111 BKN004 PROB30
TEMPO 2104/2107 0800 FZFG VV///

Example: see airport list